Time;durP1;ratioP1;P1;durP2;ratioP2;P2;SDS_P1;SDS_P2;PMS_P1;PMS_P2;Temp;Humidity;BMP_temperature;BMP_pressure;BME280_temperature;BME280_humidity;BME280_pressure;Samples;Min_cycle;Max_cycle;Signal;HPM_P1;HPM_P2
2023/12/09 00:03:05;;;;;;;29.13;24.13;;;5.00;99.90;;;5.60;100.00;97765.97;10373538;28;20226;-68
2023/12/09 00:08:08;;;;;;;28.90;22.40;;;5.10;99.90;;;5.61;100.00;97769.41;10374108;28;20230;-69
2023/12/09 00:13:13;;;;;;;30.93;23.23;;;5.10;99.90;;;5.67;100.00;97762.25;10374152;28;20230;-68
2023/12/09 00:18:16;;;;;;;28.23;21.60;;;5.10;99.90;;;5.70;100.00;97771.75;10371729;28;20249;-68
2023/12/09 00:23:19;;;;;;;18.13;13.80;;;5.10;99.90;;;5.70;100.00;97775.16;10373358;28;20637;-68
2023/12/09 00:28:26;;;;;;;20.37;15.67;;;5.10;99.90;;;5.49;100.00;97773.53;10368726;28;20241;-68
2023/12/09 00:33:29;;;;;;;19.93;15.80;;;4.90;99.90;;;5.55;100.00;97776.53;10366236;28;20237;-67
2023/12/09 00:38:32;;;;;;;22.13;17.27;;;5.00;99.90;;;5.58;100.00;97775.13;10370652;28;20706;-68
2023/12/09 00:43:36;;;;;;;20.47;16.70;;;5.00;99.90;;;5.64;100.00;97777.22;10374327;28;20236;-67
2023/12/09 00:48:39;;;;;;;22.27;17.83;;;5.10;99.90;;;5.68;100.00;97784.28;10370487;28;20230;-68
2023/12/09 00:53:43;;;;;;;25.43;19.47;;;5.20;99.90;;;5.67;100.00;97780.00;10364879;28;20226;-68
2023/12/09 00:58:47;;;;;;;25.87;19.10;;;5.10;99.90;;;5.64;100.00;97775.56;10372883;28;20317;-68
2023/12/09 01:03:50;;;;;;;24.63;19.53;;;5.10;99.90;;;5.68;100.00;97766.53;10364473;28;20231;-68
2023/12/09 01:08:54;;;;;;;27.37;19.00;;;5.10;99.90;;;5.63;100.00;97773.78;10364758;28;20687;-68
2023/12/09 01:13:58;;;;;;;26.97;20.10;;;5.10;99.90;;;5.60;100.00;97773.56;10372234;28;20257;-68
2023/12/09 01:19:01;;;;;;;25.60;20.83;;;5.10;99.90;;;5.64;100.00;97774.69;10369873;28;20239;-68
2023/12/09 01:24:06;;;;;;;22.80;18.07;;;5.10;99.90;;;5.69;100.00;97785.16;10358711;28;20890;-68
2023/12/09 01:29:10;;;;;;;22.70;17.93;;;5.20;99.90;;;5.74;100.00;97787.28;10362141;28;20265;-68
2023/12/09 01:34:13;;;;;;;29.10;21.77;;;5.20;99.90;;;5.78;100.00;97794.34;10372726;28;20694;-68
2023/12/09 01:39:17;;;;;;;23.90;18.53;;;5.20;99.90;;;5.79;100.00;97805.38;10365229;28;20240;-67
2023/12/09 01:44:21;;;;;;;20.83;15.80;;;5.20;99.90;;;5.80;100.00;97802.06;10366598;28;20237;-67
2023/12/09 01:49:25;;;;;;;20.10;16.13;;;5.20;99.90;;;5.71;100.00;97812.41;10368389;28;20226;-68
2023/12/09 01:54:29;;;;;;;18.63;15.30;;;5.10;99.90;;;5.67;100.00;97820.56;10372727;28;20230;-68
2023/12/09 01:59:33;;;;;;;18.07;14.73;;;5.10;99.90;;;5.60;100.00;97823.38;10367906;28;20634;-68
2023/12/09 02:04:37;;;;;;;21.33;16.37;;;5.00;99.90;;;5.57;100.00;97828.22;10367364;28;20215;-68
2023/12/09 02:09:40;;;;;;;22.97;16.53;;;4.90;99.90;;;5.54;100.00;97833.06;10364500;28;20468;-68
2023/12/09 02:14:54;;;;;;;22.73;16.53;;;4.90;99.90;;;5.53;100.00;97831.31;10366982;28;20222;-68
2023/12/09 02:19:58;;;;;;;20.50;15.43;;;5.00;99.90;;;5.56;100.00;97839.16;10367468;28;20230;-67
2023/12/09 02:25:03;;;;;;;20.60;14.83;;;5.00;99.90;;;5.61;100.00;97831.13;10358572;28;20829;-68
2023/12/09 02:30:16;;;;;;;23.97;17.13;;;5.00;99.90;;;5.63;100.00;97843.91;10364136;28;20243;-68
2023/12/09 02:35:21;;;;;;;23.23;16.67;;;5.00;99.90;;;5.61;100.00;97830.25;10374088;28;20230;-67
2023/12/09 02:40:27;;;;;;;28.30;21.00;;;5.00;99.90;;;5.63;100.00;97826.16;10370016;28;20234;-68
2023/12/09 02:45:30;;;;;;;19.57;15.70;;;5.00;99.90;;;5.59;100.00;97819.09;10363093;28;20268;-68
2023/12/09 02:50:36;;;;;;;23.23;16.13;;;5.10;99.90;;;5.64;100.00;97812.72;10361779;28;20254;-68
2023/12/09 02:55:40;;;;;;;25.07;18.03;;;5.00;99.90;;;5.61;100.00;97815.03;10366894;28;20416;-68
2023/12/09 03:00:43;;;;;;;23.07;16.73;;;5.00;99.90;;;5.59;100.00;97801.34;10372593;28;20607;-68
2023/12/09 03:05:47;;;;;;;19.73;15.27;;;5.00;99.90;;;5.59;100.00;97791.22;10370868;28;20329;-68
2023/12/09 03:10:51;;;;;;;19.90;16.63;;;5.00;99.90;;;5.59;100.00;97801.34;10376442;28;20242;-67
2023/12/09 03:15:54;;;;;;;24.50;18.07;;;5.00;99.90;;;5.59;100.00;97786.16;10378237;28;20226;-68
2023/12/09 03:20:57;;;;;;;27.97;20.77;;;5.00;99.90;;;5.61;100.00;97777.88;10364594;28;20975;-68
2023/12/09 03:26:02;;;;;;;15.07;12.53;;;5.10;99.90;;;5.71;100.00;97771.84;10365221;28;20262;-68
2023/12/09 03:31:05;;;;;;;18.83;13.87;;;5.00;99.90;;;5.49;100.00;97764.28;10371127;28;20237;-69
2023/12/09 03:36:11;;;;;;;16.10;11.97;;;4.90;99.90;;;5.57;100.00;97757.25;10374253;28;20711;-69
2023/12/09 03:41:15;;;;;;;18.37;13.90;;;4.90;99.90;;;5.59;100.00;97748.13;10382691;28;20609;-68
2023/12/09 03:46:18;;;;;;;23.03;16.30;;;4.90;99.90;;;5.30;100.00;97746.81;10380676;28;20218;-68
2023/12/09 03:51:22;;;;;;;21.87;15.40;;;4.80;99.90;;;5.26;100.00;97757.47;10376489;28;20233;-69
2023/12/09 03:56:26;;;;;;;20.77;14.67;;;4.70;99.90;;;5.31;100.00;97766.31;10383361;28;20377;-68
2023/12/09 04:01:29;;;;;;;18.67;14.33;;;4.80;99.90;;;5.31;100.00;97768.84;10372707;28;20236;-68
2023/12/09 04:06:33;;;;;;;21.90;14.53;;;4.80;99.90;;;5.40;100.00;97759.41;10362852;28;20253;-68
2023/12/09 04:11:37;;;;;;;21.80;16.47;;;4.80;99.90;;;5.39;100.00;97752.56;10376561;28;20570;-69
2023/12/09 04:16:43;;;;;;;22.67;16.47;;;4.80;99.90;;;5.34;100.00;97755.53;10375209;28;20498;-68
2023/12/09 04:21:46;;;;;;;18.67;14.77;;;4.70;99.90;;;5.32;100.00;97759.59;10369104;28;20218;-68
2023/12/09 04:26:51;;;;;;;21.73;15.37;;;4.70;99.90;;;5.31;100.00;97757.84;10383348;28;20232;-69
2023/12/09 04:31:54;;;;;;;20.50;14.17;;;4.70;99.90;;;5.22;100.00;97752.09;10369943;28;20248;-67
2023/12/09 04:36:58;;;;;;;19.30;12.97;;;4.60;99.90;;;5.18;100.00;97748.44;10379382;28;20229;-68
2023/12/09 04:42:04;;;;;;;17.17;12.70;;;4.50;99.90;;;5.10;100.00;97752.91;10375489;28;20221;-68
2023/12/09 04:47:07;;;;;;;15.90;12.10;;;4.40;99.90;;;4.93;100.00;97764.28;10373182;28;20229;-68
2023/12/09 04:52:10;;;;;;;14.70;12.13;;;4.30;99.90;;;4.85;100.00;97769.53;10361526;28;20235;-68
2023/12/09 04:57:15;;;;;;;16.93;13.43;;;4.20;99.90;;;4.73;100.00;97779.59;10374254;28;20275;-69
2023/12/09 05:02:20;;;;;;;17.40;13.77;;;4.10;99.90;;;4.67;100.00;97769.88;10368660;28;20260;-68
2023/12/09 05:07:25;;;;;;;17.27;13.80;;;4.10;99.90;;;4.57;100.00;97771.56;10361008;28;20222;-69
2023/12/09 05:12:30;;;;;;;14.77;11.20;;;4.00;99.90;;;4.64;100.00;97773.81;10359742;28;20222;-68
2023/12/09 05:17:34;;;;;;;18.00;12.50;;;4.00;99.90;;;4.61;100.00;97779.50;10375620;28;20621;-68
2023/12/09 05:22:37;;;;;;;16.73;12.60;;;4.00;99.90;;;4.60;100.00;97769.25;10370739;28;20320;-68
2023/12/09 05:27:41;;;;;;;20.87;13.80;;;4.00;99.90;;;4.61;100.00;97758.38;10362881;28;20241;-68
2023/12/09 05:32:44;;;;;;;16.13;11.43;;;4.00;99.90;;;4.64;100.00;97753.56;10369939;28;20225;-67
2023/12/09 05:37:48;;;;;;;19.63;13.40;;;4.10;99.90;;;4.59;100.00;97749.78;10364840;28;20226;-69
2023/12/09 05:42:52;;;;;;;16.83;12.07;;;4.00;99.90;;;4.56;100.00;97744.50;10359827;28;20523;-68
2023/12/09 05:47:57;;;;;;;25.47;15.27;;;4.00;99.90;;;4.57;100.00;97751.31;10359694;28;20496;-69
2023/12/09 05:53:00;;;;;;;20.60;13.80;;;4.00;99.90;;;4.61;100.00;97745.75;10360675;28;20637;-68
2023/12/09 05:58:06;;;;;;;20.93;13.40;;;4.00;99.90;;;4.60;100.00;97742.28;10360780;28;20277;-69
2023/12/09 06:03:09;;;;;;;32.87;22.37;;;4.00;99.90;;;4.59;100.00;97739.66;10360024;28;20237;-69
2023/12/09 06:08:12;;;;;;;23.13;14.93;;;4.00;99.90;;;4.62;100.00;97747.50;10356219;28;20341;-69
2023/12/09 06:13:17;;;;;;;16.17;11.67;;;4.00;99.90;;;4.46;100.00;97742.88;10390851;28;20722;-68
2023/12/09 06:18:20;;;;;;;28.30;14.23;;;3.90;99.90;;;4.32;100.00;97743.44;10359863;28;20233;-69
2023/12/09 06:23:23;;;;;;;22.43;14.93;;;3.80;99.90;;;4.48;100.00;97751.47;10359736;28;20752;-67
2023/12/09 06:28:27;;;;;;;21.30;13.83;;;3.90;99.90;;;4.45;100.00;97734.41;10362706;28;20229;-71
2023/12/09 06:33:31;;;;;;;24.43;14.63;;;3.90;99.90;;;4.50;100.00;97730.59;10365193;28;20230;-70
2023/12/09 06:38:34;;;;;;;21.83;14.37;;;4.00;99.90;;;4.58;100.00;97728.66;10357559;28;20729;-68
2023/12/09 06:43:40;;;;;;;35.13;18.23;;;4.00;99.90;;;4.53;100.00;97726.53;10356699;28;20796;-69
2023/12/09 06:48:43;;;;;;;38.17;16.73;;;3.90;99.90;;;4.47;100.00;97729.47;10368221;28;20986;-69
2023/12/09 06:53:46;;;;;;;24.53;15.50;;;3.90;99.90;;;4.44;100.00;97722.53;10357311;28;20234;-69
2023/12/09 06:58:51;;;;;;;27.27;16.83;;;3.90;99.90;;;4.32;100.00;97713.06;10356136;28;20867;-74
2023/12/09 07:03:54;;;;;;;19.43;15.63;;;3.90;99.90;;;4.45;100.00;97715.81;10366375;28;20248;-69
2023/12/09 07:08:58;;;;;;;21.37;16.60;;;3.90;99.90;;;4.34;100.00;97707.38;10359405;28;20710;-69
2023/12/09 07:14:02;;;;;;;20.80;14.90;;;3.90;99.90;;;4.42;100.00;97707.97;10357645;28;20718;-70
2023/12/09 07:19:06;;;;;;;19.77;15.37;;;3.90;99.90;;;4.57;100.00;97704.09;10358063;28;20591;-69
2023/12/09 07:24:09;;;;;;;19.07;14.87;;;4.00;99.90;;;4.51;100.00;97696.03;10364522;28;20376;-70
2023/12/09 07:29:14;;;;;;;22.20;17.07;;;4.00;99.90;;;4.45;100.00;97715.81;10354354;28;20233;-70
2023/12/09 07:34:18;;;;;;;22.90;16.97;;;4.00;99.90;;;4.55;100.00;97717.38;10359975;28;20234;-70
2023/12/09 07:39:21;;;;;;;23.20;15.93;;;4.10;99.90;;;4.69;100.00;97721.88;10366977;28;20229;-69
2023/12/09 07:44:26;;;;;;;21.70;16.27;;;4.20;99.90;;;4.72;100.00;97722.09;10364548;28;20226;-69
2023/12/09 07:49:29;;;;;;;27.87;16.40;;;4.20;99.90;;;4.81;100.00;97725.38;10368029;28;20671;-69
2023/12/09 07:54:32;;;;;;;23.87;15.93;;;4.20;99.90;;;4.74;100.00;97710.47;10369839;28;20230;-68
2023/12/09 07:59:37;;;;;;;19.03;15.40;;;4.20;99.90;;;4.81;100.00;97732.06;10372145;28;20340;-67
2023/12/09 08:04:40;;;;;;;20.13;14.80;;;4.30;99.90;;;4.87;100.00;97730.03;10359999;28;20227;-68
2023/12/09 08:09:43;;;;;;;19.23;15.07;;;4.30;99.90;;;4.86;100.00;97713.91;10362308;28;20590;-68
2023/12/09 08:14:48;;;;;;;21.80;15.77;;;4.30;99.90;;;4.91;100.00;97720.22;10364718;28;20221;-68
2023/12/09 08:19:51;;;;;;;18.93;14.50;;;4.40;99.90;;;4.94;100.00;97714.50;10368063;28;20884;-68
2023/12/09 08:24:54;;;;;;;21.93;16.77;;;4.40;99.90;;;4.90;100.00;97703.28;10368332;28;20258;-68
2023/12/09 08:29:58;;;;;;;21.97;17.50;;;4.30;99.90;;;4.89;100.00;97701.53;10366762;28;20229;-68
2023/12/09 08:35:02;;;;;;;19.77;16.07;;;4.40;99.90;;;4.97;100.00;97695.38;10376391;28;20697;-68
2023/12/09 08:40:13;;;;;;;19.03;15.47;;;4.50;99.90;;;5.03;100.00;97684.81;10367589;28;20744;-67
2023/12/09 08:45:18;;;;;;;20.47;15.63;;;4.60;99.90;;;5.09;100.00;97664.13;10382549;28;20276;-73
2023/12/09 08:50:21;;;;;;;18.23;15.17;;;4.60;99.90;;;5.18;100.00;97670.78;10370923;28;20296;-68
2023/12/09 08:55:27;;;;;;;17.27;14.83;;;4.70;99.90;;;5.39;100.00;97660.47;10365123;28;20259;-68
2023/12/09 09:00:32;;;;;;;18.97;14.63;;;4.80;99.90;;;5.53;100.00;97658.94;10369404;28;20327;-68
2023/12/09 09:05:35;;;;;;;16.90;13.60;;;4.90;99.90;;;5.75;100.00;97659.75;10365011;28;20295;-66
2023/12/09 09:10:38;;;;;;;20.10;17.53;;;5.10;99.90;;;6.10;100.00;97671.56;10357516;28;20226;-68
2023/12/09 09:15:43;;;;;;;22.60;19.37;;;5.50;99.90;;;6.50;100.00;97654.03;10369509;28;20245;-68
2023/12/09 09:20:46;;;;;;;22.73;18.33;;;5.90;99.90;;;6.77;100.00;97645.75;10365157;28;20241;-69
2023/12/09 09:25:49;;;;;;;19.17;15.70;;;6.10;99.90;;;6.89;100.00;97642.28;10360507;28;20314;-68
2023/12/09 09:30:54;;;;;;;19.27;16.63;;;6.20;99.90;;;6.95;100.00;97645.22;10367612;28;20222;-68
2023/12/09 09:35:57;;;;;;;18.80;16.80;;;6.30;99.90;;;7.05;100.00;97632.38;10369047;28;20520;-68
2023/12/09 09:41:00;;;;;;;17.17;14.90;;;6.30;99.90;;;6.96;100.00;97634.31;10360730;28;20356;-68
2023/12/09 09:46:07;;;;;;;16.80;15.00;;;6.20;99.90;;;6.75;100.00;97626.09;10373094;28;20234;-69
2023/12/09 09:51:16;;;;;;;16.33;14.63;;;6.10;99.90;;;6.87;100.00;97608.31;10366013;28;20283;-68
2023/12/09 09:56:21;;;;;;;14.37;12.50;;;6.30;99.90;;;7.02;100.00;97595.72;10370835;28;20234;-67
2023/12/09 10:01:27;;;;;;;16.00;11.90;;;6.40;99.90;;;7.12;100.00;97585.38;10357154;28;20623;-68
2023/12/09 10:06:31;;;;;;;11.83;9.50;;;6.50;99.90;;;7.18;100.00;97579.06;10368920;28;20221;-67
2023/12/09 10:11:34;;;;;;;13.70;9.80;;;6.60;99.90;;;7.26;100.00;97583.75;10374569;28;20329;-68
2023/12/09 10:16:39;;;;;;;15.80;10.97;;;6.60;99.90;;;7.31;100.00;97568.00;10363839;28;20230;-66
2023/12/09 10:21:43;;;;;;;11.93;10.70;;;6.60;99.90;;;7.31;100.00;97560.38;10366095;28;20253;-67
2023/12/09 10:26:47;;;;;;;17.20;9.93;;;6.60;99.90;;;7.41;100.00;97557.66;10376172;28;20351;-68
2023/12/09 10:31:51;;;;;;;7.47;6.77;;;6.80;99.90;;;7.43;100.00;97550.13;10371278;28;20225;-67
2023/12/09 10:36:55;;;;;;;8.07;7.20;;;6.80;99.90;;;7.49;100.00;97544.53;10364696;28;20232;-68
2023/12/09 10:41:58;;;;;;;8.57;6.33;;;6.80;99.90;;;7.54;100.00;97533.88;10370242;28;20360;-71
2023/12/09 10:47:04;;;;;;;5.63;4.57;;;6.90;99.90;;;7.56;100.00;97522.16;10366972;28;20574;-70
2023/12/09 10:52:07;;;;;;;6.47;5.32;;;6.90;99.90;;;7.56;100.00;97501.81;10368625;28;20222;-67
2023/12/09 10:57:12;;;;;;;9.30;5.70;;;6.90;99.90;;;7.54;100.00;97492.31;10367024;28;20230;-68
2023/12/09 11:02:19;;;;;;;5.37;4.77;;;6.90;99.90;;;7.64;100.00;97484.47;10383934;28;20244;-67
2023/12/09 11:07:24;;;;;;;6.33;5.63;;;7.00;99.90;;;7.70;100.00;97473.78;10365930;28;20234;-68
2023/12/09 11:12:28;;;;;;;5.90;5.10;;;7.10;99.90;;;7.72;100.00;97457.84;10375848;28;20356;-66
2023/12/09 11:17:38;;;;;;;5.63;5.03;;;7.10;99.90;;;7.77;100.00;97440.31;10377773;28;20238;-67
2023/12/09 11:22:43;;;;;;;6.10;5.50;;;7.10;99.90;;;7.78;100.00;97449.72;10376686;28;20230;-67
2023/12/09 11:27:50;;;;;;;5.32;4.82;;;7.20;99.90;;;8.16;100.00;97425.72;10383071;28;20241;-67
2023/12/09 11:32:55;;;;;;;6.03;5.00;;;7.50;99.90;;;8.08;100.00;97403.22;10371097;28;20773;-67
2023/12/09 11:38:00;;;;;;;4.47;4.07;;;7.60;99.90;;;8.24;100.00;97379.53;10376516;28;20631;-67
2023/12/09 11:43:06;;;;;;;4.82;4.43;;;7.80;99.90;;;8.28;100.00;97344.94;10375868;28;20679;-67
2023/12/09 11:48:11;;;;;;;5.60;3.65;;;7.80;99.90;;;8.48;100.00;97344.44;10370623;28;20714;-69
2023/12/09 11:53:14;;;;;;;3.92;3.63;;;7.90;99.90;;;8.60;100.00;97338.28;10370713;28;20595;-68
2023/12/09 11:58:17;;;;;;;4.20;3.90;;;8.00;99.90;;;8.60;100.00;97328.09;10371801;28;20486;-69
2023/12/09 12:03:22;;;;;;;4.20;3.88;;;8.00;99.90;;;8.76;100.00;97317.97;10363729;28;20233;-66
2023/12/09 12:08:25;;;;;;;4.30;3.70;;;8.10;99.90;;;8.79;100.00;97295.22;10380688;28;20231;-66
2023/12/09 12:13:29;;;;;;;3.92;3.63;;;8.20;99.90;;;8.71;100.00;97292.22;10370584;28;20243;-67
2023/12/09 12:18:34;;;;;;;4.18;3.88;;;8.10;99.90;;;8.61;100.00;97286.53;10371451;28;20226;-68
2023/12/09 12:23:39;;;;;;;3.65;3.33;;;8.00;99.90;;;8.62;100.00;97265.38;10369050;28;20395;-65
2023/12/09 12:28:42;;;;;;;3.65;3.35;;;8.00;99.90;;;8.52;100.00;97272.50;10370946;28;20234;-68
2023/12/09 12:33:46;;;;;;;3.85;3.53;;;7.90;99.90;;;8.52;100.00;97280.13;10399563;28;20237;-68
2023/12/09 12:38:50;;;;;;;3.65;3.30;;;7.90;99.90;;;8.49;100.00;97244.31;10373113;28;20235;-68
2023/12/09 12:43:53;;;;;;;3.85;3.55;;;7.90;99.90;;;8.64;100.00;97235.75;10374041;28;20234;-67
2023/12/09 12:48:58;;;;;;;4.10;3.80;;;8.00;99.90;;;8.75;100.00;97227.91;10374056;28;20230;-67
2023/12/09 12:54:02;;;;;;;3.05;2.85;;;8.00;99.90;;;8.75;100.00;97219.38;10374089;28;20229;-67
2023/12/09 12:59:05;;;;;;;3.20;3.00;;;8.00;99.90;;;8.66;100.00;97212.13;10373659;28;20711;-67
2023/12/09 13:04:09;;;;;;;5.85;5.22;;;7.90;99.90;;;8.60;100.00;97190.56;10371660;28;20309;-67
2023/12/09 13:09:13;;;;;;;4.43;3.97;;;7.90;99.90;;;8.78;100.00;97181.31;10369014;28;20752;-69
2023/12/09 13:14:16;;;;;;;4.32;3.92;;;8.10;99.90;;;8.71;99.35;97158.88;10371836;28;20318;-67
2023/12/09 13:19:20;;;;;;;4.20;3.90;;;8.10;99.90;;;8.46;100.00;97147.38;10378477;28;20234;-67
2023/12/09 13:24:24;;;;;;;4.10;3.72;;;7.80;99.90;;;8.40;100.00;97141.97;10358836;28;20230;-67
2023/12/09 13:29:27;;;;;;;4.97;4.50;;;7.80;99.90;;;8.30;100.00;97163.50;10375443;28;20233;-67
2023/12/09 13:34:31;;;;;;;4.88;4.47;;;7.70;99.90;;;8.32;100.00;97133.00;10371911;28;20583;-67
2023/12/09 13:39:35;;;;;;;5.55;5.05;;;7.70;99.90;;;8.61;100.00;97131.16;10364427;28;20710;-67
2023/12/09 13:44:38;;;;;;;5.35;4.85;;;8.00;99.90;;;8.24;100.00;97118.97;10366469;28;20745;-66
2023/12/09 13:49:44;;;;;;;7.15;6.55;;;7.70;99.90;;;8.30;100.00;97106.59;10377949;28;20231;-67
2023/12/09 13:54:49;;;;;;;6.38;5.78;;;7.60;99.90;;;8.26;100.00;97069.91;10369529;28;20617;-67
2023/12/09 13:59:52;;;;;;;7.60;6.90;;;7.50;99.90;;;8.02;100.00;97058.44;10379988;28;20229;-68
2023/12/09 14:04:56;;;;;;;7.53;6.83;;;7.40;99.90;;;7.93;100.00;97038.47;10376764;28;20713;-67
2023/12/09 14:10:00;;;;;;;9.00;8.03;;;7.20;99.90;;;7.77;100.00;97038.41;10376788;28;20841;-67
2023/12/09 14:15:07;;;;;;;8.83;7.83;;;7.20;99.90;;;7.73;100.00;97018.72;10370270;28;20245;-67
2023/12/09 14:20:14;;;;;;;7.50;6.57;;;7.10;99.90;;;7.69;100.00;97020.19;10378352;28;20222;-68
2023/12/09 14:25:19;;;;;;;8.13;7.33;;;7.00;99.90;;;7.56;100.00;97013.56;10382859;28;20315;-68
2023/12/09 14:30:22;;;;;;;8.85;7.95;;;6.90;99.90;;;7.36;100.00;97004.84;10370785;28;20764;-67
2023/12/09 14:35:26;;;;;;;9.53;8.47;;;6.70;99.90;;;7.26;100.00;97010.19;10373654;28;20963;-67
2023/12/09 14:40:30;;;;;;;9.40;8.50;;;6.60;99.90;;;7.19;100.00;96991.19;10366667;28;20230;-67
2023/12/09 14:45:33;;;;;;;9.70;8.83;;;6.60;99.90;;;7.13;100.00;97008.66;10375355;28;20757;-67
2023/12/09 14:50:37;;;;;;;9.20;8.30;;;6.60;99.90;;;7.35;100.00;96976.78;10389245;28;20744;-67
2023/12/09 14:55:41;;;;;;;9.13;7.83;;;6.60;99.90;;;7.44;100.00;96973.09;10378456;28;20619;-68
2023/12/09 15:00:44;;;;;;;10.10;8.70;;;6.70;99.90;;;7.52;100.00;96970.94;10380993;28;20260;-65
2023/12/09 15:05:52;;;;;;;9.47;8.63;;;6.90;99.90;;;7.53;100.00;96970.19;10378036;28;20714;-67
2023/12/09 15:10:56;;;;;;;10.07;9.07;;;6.80;99.90;;;7.50;100.00;96962.38;10382888;28;20221;-68
2023/12/09 15:15:59;;;;;;;9.30;8.13;;;6.80;99.90;;;7.27;100.00;96937.34;10371190;28;20240;-68
2023/12/09 15:21:04;;;;;;;10.00;9.00;;;6.60;99.90;;;7.18;100.00;96928.47;10363603;28;20234;-67
2023/12/09 15:26:07;;;;;;;17.17;13.20;;;6.60;99.90;;;7.18;100.00;96920.84;10369679;28;20226;-68
2023/12/09 15:31:10;;;;;;;10.70;9.60;;;6.50;99.90;;;7.09;100.00;96907.63;10368289;28;20234;-67
2023/12/09 15:36:15;;;;;;;9.97;8.97;;;6.50;99.90;;;7.01;100.00;96878.41;10374414;28;20371;-68
2023/12/09 15:41:18;;;;;;;9.93;8.87;;;6.40;99.90;;;7.08;100.00;96865.22;10365420;28;20242;-66
2023/12/09 15:46:21;;;;;;;12.00;10.80;;;6.40;99.90;;;7.08;100.00;96844.91;10373677;28;20233;-67
2023/12/09 15:51:26;;;;;;;9.90;8.90;;;6.50;99.90;;;6.78;100.00;96818.69;10373855;28;20225;-67
2023/12/09 15:56:29;;;;;;;10.47;9.40;;;6.30;99.90;;;6.54;100.00;96803.00;10368832;28;20721;-65
2023/12/09 16:01:32;;;;;;;9.60;8.70;;;6.20;99.90;;;6.54;100.00;96787.78;10374230;28;20230;-66
2023/12/09 16:06:38;;;;;;;11.97;10.83;;;6.10;99.90;;;6.67;100.00;96757.19;10369656;28;20695;-66
2023/12/09 16:11:41;;;;;;;10.77;9.47;;;6.20;99.90;;;6.69;100.00;96727.66;10370765;28;20230;-67
2023/12/09 16:16:44;;;;;;;11.00;9.77;;;6.20;99.90;;;6.61;100.00;96722.97;10372912;28;20226;-67
2023/12/09 16:21:49;;;;;;;14.27;11.53;;;6.20;99.90;;;6.37;100.00;96732.69;10362325;28;20232;-67
2023/12/09 16:26:52;;;;;;;10.60;8.83;;;6.10;99.90;;;6.38;100.00;96720.09;10368057;28;20661;-65
2023/12/09 16:31:55;;;;;;;9.17;7.90;;;6.00;99.90;;;6.47;100.00;96699.41;10375281;28;20757;-68
2023/12/09 16:37:00;;;;;;;11.20;10.10;;;6.10;99.90;;;6.36;100.00;96685.28;10374309;28;20745;-68
2023/12/09 16:42:04;;;;;;;8.80;7.90;;;6.10;99.90;;;6.44;100.00;96658.63;10375553;28;20229;-68
2023/12/09 16:47:07;;;;;;;9.23;8.33;;;6.20;99.90;;;6.35;100.00;96640.38;10369332;28;20262;-68
2023/12/09 16:52:12;;;;;;;10.70;9.60;;;6.10;99.90;;;6.43;100.00;96631.50;10361967;28;20218;-67
2023/12/09 16:57:15;;;;;;;9.50;8.50;;;6.10;99.90;;;6.30;100.00;96600.41;10366329;28;20238;-66
2023/12/09 17:02:18;;;;;;;9.60;8.70;;;6.00;99.90;;;6.32;100.00;96583.59;10365667;28;20717;-65
2023/12/09 17:07:24;;;;;;;9.30;8.57;;;6.00;99.90;;;6.28;100.00;96566.47;10366830;28;20835;-66
2023/12/09 17:12:27;;;;;;;23.93;14.33;;;6.00;99.90;;;6.26;100.00;96555.34;10366046;28;20765;-67
2023/12/09 17:17:30;;;;;;;6.27;5.27;;;6.00;99.90;;;6.38;100.00;96534.84;10366337;28;20356;-66
2023/12/09 17:22:36;;;;;;;6.47;5.80;;;6.00;99.90;;;6.37;100.00;96514.44;10365542;28;20260;-68
2023/12/09 17:27:39;;;;;;;6.87;6.17;;;6.10;99.90;;;6.40;100.00;96494.31;10369277;28;20740;-68
2023/12/09 17:32:42;;;;;;;6.07;5.57;;;6.10;99.90;;;6.37;100.00;96479.78;10362790;28;20230;-66
2023/12/09 17:37:47;;;;;;;5.00;4.60;;;6.10;99.90;;;6.37;100.00;96472.19;10361164;28;20234;-67
2023/12/09 17:42:50;;;;;;;5.33;4.83;;;6.10;99.90;;;6.36;100.00;96469.59;10362325;28;20230;-67
2023/12/09 17:47:54;;;;;;;3.90;3.50;;;6.10;99.90;;;6.59;100.00;96461.44;10362786;28;20361;-66
2023/12/09 17:52:58;;;;;;;3.97;3.57;;;6.20;99.90;;;6.51;100.00;96465.25;10361909;28;20234;-68
2023/12/09 17:58:01;;;;;;;4.03;3.73;;;6.20;99.90;;;6.47;100.00;96460.84;10359604;28;20241;-67
2023/12/09 18:03:05;;;;;;;4.50;4.10;;;6.20;99.90;;;6.51;100.00;96422.13;10360657;28;20230;-68
2023/12/09 18:08:10;;;;;;;3.90;3.60;;;6.30;99.90;;;6.52;100.00;96418.78;10365231;28;20371;-69
2023/12/09 18:13:13;;;;;;;2.80;2.60;;;6.30;99.90;;;6.63;100.00;96391.38;10359874;28;20232;-68
2023/12/09 18:18:16;;;;;;;2.70;2.50;;;6.40;99.90;;;6.89;100.00;96369.75;10360398;28;20226;-68
2023/12/09 18:23:21;;;;;;;2.83;2.60;;;6.70;99.90;;;6.88;100.00;96360.41;10364921;28;20229;-68
2023/12/09 18:28:24;;;;;;;2.90;2.60;;;6.70;99.90;;;6.66;100.00;96366.13;10361866;28;20240;-68
2023/12/09 18:33:29;;;;;;;2.63;2.43;;;6.50;99.90;;;6.56;100.00;96369.91;10363442;28;20252;-67
2023/12/09 18:38:37;;;;;;;4.97;4.57;;;6.40;99.90;;;6.56;100.00;96380.06;10374872;28;20234;-68
2023/12/09 18:43:40;;;;;;;5.83;5.33;;;6.40;99.90;;;6.57;100.00;96358.94;10364526;28;20313;-67
2023/12/09 18:48:43;;;;;;;5.67;3.93;;;6.40;99.90;;;6.56;100.00;96324.22;10360330;28;20736;-67
2023/12/09 18:53:50;;;;;;;9.20;7.87;;;6.30;99.90;;;6.47;100.00;96308.56;10361222;28;20225;-67
2023/12/09 18:58:54;;;;;;;3.30;2.80;;;6.30;99.90;;;6.52;100.00;96302.03;10352967;28;20592;-68
2023/12/09 19:04:00;;;;;;;2.80;2.60;;;6.30;99.90;;;6.47;100.00;96316.19;10359316;28;20440;-68
2023/12/09 19:09:08;;;;;;;3.07;2.87;;;6.20;99.90;;;6.47;100.00;96317.06;10349581;28;20234;-69
2023/12/09 19:14:12;;;;;;;3.30;3.00;;;6.20;99.90;;;6.49;100.00;96301.88;10360969;28;20653;-69
2023/12/09 19:19:18;;;;;;;3.83;3.63;;;6.20;99.90;;;6.46;100.00;96302.59;10360318;28;20234;-71
2023/12/09 19:24:27;;;;;;;5.00;4.70;;;6.20;99.90;;;6.44;100.00;96301.69;10364051;28;20230;-67
2023/12/09 19:29:33;;;;;;;5.10;4.63;;;6.20;99.90;;;6.49;100.00;96309.50;10364730;28;20733;-67
2023/12/09 19:34:36;;;;;;;3.90;3.60;;;6.20;99.90;;;6.54;100.00;96308.03;10367281;28;20587;-67
2023/12/09 19:39:41;;;;;;;7.33;6.73;;;6.20;99.90;;;6.58;100.00;96307.41;10370550;28;20508;-67
2023/12/09 19:44:44;;;;;;;4.40;4.00;;;6.20;99.90;;;6.61;100.00;96299.03;10377394;28;20222;-68
2023/12/09 19:49:47;;;;;;;4.43;4.03;;;6.20;99.90;;;6.62;100.00;96306.75;10380913;28;20268;-67
2023/12/09 19:54:53;;;;;;;5.43;5.03;;;6.20;99.90;;;6.64;100.00;96307.69;10369903;28;20240;-67
2023/12/09 19:59:56;;;;;;;9.53;8.87;;;6.30;99.90;;;6.71;100.00;96308.84;10376638;28;20257;-67
2023/12/09 20:05:00;;;;;;;13.13;11.80;;;6.30;99.90;;;6.61;100.00;96301.56;10383582;28;20606;-67
2023/12/09 20:10:07;;;;;;;11.90;10.33;;;6.20;99.90;;;6.63;100.00;96303.41;10382142;28;20768;-68
2023/12/09 20:15:11;;;;;;;19.70;17.53;;;6.30;99.90;;;6.64;100.00;96316.94;10371097;28;20230;-67
2023/12/09 20:20:14;;;;;;;13.33;11.93;;;6.30;99.90;;;6.74;100.00;96330.16;10378170;28;20241;-69
2023/12/09 20:25:19;;;;;;;13.77;12.37;;;6.30;99.90;;;6.75;100.00;96343.72;10367675;28;20733;-68
2023/12/09 20:30:22;;;;;;;8.93;8.23;;;6.30;99.90;;;6.78;100.00;96341.31;10400815;28;20248;-68
2023/12/09 20:35:28;;;;;;;5.43;4.93;;;6.40;99.90;;;6.83;100.00;96336.47;10374402;28;20240;-68
2023/12/09 20:40:34;;;;;;;11.53;10.40;;;6.40;99.90;;;6.86;100.00;96352.72;10373066;28;20230;-67
2023/12/09 20:45:37;;;;;;;9.73;8.83;;;6.50;99.90;;;6.95;100.00;96344.63;10375577;28;20233;-70
2023/12/09 20:50:41;;;;;;;17.00;13.90;;;6.50;99.90;;;6.92;100.00;96345.38;10368357;28;20365;-68
2023/12/09 20:55:45;;;;;;;10.40;9.30;;;6.50;99.90;;;7.04;100.00;96355.25;10374379;28;20788;-67
2023/12/09 21:00:49;;;;;;;5.17;4.70;;;6.50;99.90;;;7.13;100.00;96339.56;10367213;28;20233;-67
2023/12/09 21:05:52;;;;;;;4.40;4.00;;;6.60;99.90;;;7.20;100.00;96364.44;10389277;28;20320;-68